Station Historical Data
Daily Summary for June 8, 2017 Units:  Metric    English   Both
« Previous Day
Next Day »
Daily Weekly Monthly Yearly Custom
  High: Low: Average:
Temperature: 25 °C 8.5 °C 17.6 °C
Dew Point: 12.9 °C 6.3 °C 9.6 °C
Humidity: 87% 40% 62%
Wind Speed: 16.1km/h 0km/h 2.1km/h
Wind Gust: 19.3km/h - -
Wind- - South
Pressure: 1018.2 hPa 1009.7 hPa -
Precipitation: 0 mm    
Historical Graphs
 
 
Tabular Data for June 8, 2017
Time Temperature Dew Point Pressure Wind Wind Speed Wind Gust Humidity Rainfall Rate (Hourly)
00:04 12.9 °C 7.9 °C 1018.2 hPa Calm     72% 0 mm
00:09 12.9 °C 8 °C 1018.2 hPa Calm     72% 0 mm
00:14 12.8 °C 7.8 °C 1018.2 hPa Calm     72% 0 mm
00:19 12.3 °C 7.6 °C 1018.2 hPa Calm     73% 0 mm
00:24 12.1 °C 7.8 °C 1018.2 hPa Calm     75% 0 mm
00:29 12.2 °C 7.9 °C 1018.2 hPa Calm     75% 0 mm
00:34 12.2 °C 7.9 °C 1018.2 hPa Calm     75% 0 mm
00:39 11.9 °C 7.8 °C 1018.2 hPa Calm     76% 0 mm
00:44 12.1 °C 7.9 °C 1017.8 hPa Calm     76% 0 mm
00:49 12.2 °C 8.1 °C 1017.8 hPa Calm     76% 0 mm
00:54 12.1 °C 7.9 °C 1017.8 hPa Calm     76% 0 mm
00:59 11.9 °C 8 °C 1018.2 hPa Calm     77% 0 mm
01:04 11.9 °C 8 °C 1017.8 hPa Calm     77% 0 mm
01:09 11.9 °C 8 °C 1017.8 hPa Calm     77% 0 mm
01:14 11.9 °C 8 °C 1017.8 hPa Calm     77% 0 mm
01:19 11.8 °C 8.1 °C 1017.8 hPa Calm     78% 0 mm
01:24 11.6 °C 7.9 °C 1017.8 hPa Calm     78% 0 mm
01:29 11.5 °C 7.8 °C 1017.8 hPa Calm     78% 0 mm
01:34 11.2 °C 7.7 °C 1017.8 hPa Calm     79% 0 mm
01:39 11.3 °C 7.8 °C 1017.8 hPa Calm     79% 0 mm
01:44 11.2 °C 7.7 °C 1017.5 hPa Calm     79% 0 mm
01:49 11.1 °C 7.6 °C 1017.5 hPa Calm     79% 0 mm
01:54 11.1 °C 7.7 °C 1017.5 hPa Calm     80% 0 mm
01:59 11 °C 7.7 °C 1017.5 hPa NE 1.6 km/h 3.2 km/h 80% 0 mm
02:04 11 °C 7.7 °C 1017.5 hPa Calm   3.2 km/h 80% 0 mm
02:09 10.9 °C 7.6 °C 1017.5 hPa Calm   1.6 km/h 80% 0 mm
02:14 10.9 °C 7.6 °C 1017.5 hPa Calm     80% 0 mm
02:19 10.8 °C 7.5 °C 1017.5 hPa Calm   1.6 km/h 80% 0 mm
02:24 10.8 °C 7.7 °C 1017.5 hPa Calm   1.6 km/h 81% 0 mm
02:29 10.6 °C 7.5 °C 1017.5 hPa Calm     81% 0 mm
02:34 10.6 °C 7.4 °C 1017.5 hPa Calm   1.6 km/h 81% 0 mm
02:39 10.4 °C 7.3 °C 1017.2 hPa Calm     81% 0 mm
02:44 10.3 °C 7.4 °C 1017.5 hPa Calm     82% 0 mm
02:49 10.1 °C 7.2 °C 1017.5 hPa Calm     82% 0 mm
02:54 10.1 °C 7.3 °C 1017.5 hPa Calm     83% 0 mm
02:59 10.1 °C 7.3 °C 1017.5 hPa Calm     83% 0 mm
03:04 9.9 °C 7 °C 1017.2 hPa Calm     82% 0 mm
03:09 9.9 °C 7.1 °C 1017.2 hPa Calm     83% 0 mm
03:14 9.9 °C 7.1 °C 1017.2 hPa Calm     83% 0 mm
03:19 9.8 °C 7.1 °C 1017.2 hPa Calm     83% 0 mm
03:24 9.9 °C 7.1 °C 1017.2 hPa Calm     83% 0 mm
03:29 9.8 °C 7.1 °C 1017.2 hPa Calm     83% 0 mm
03:34 9.9 °C 7.1 °C 1017.2 hPa Calm     83% 0 mm
03:39 9.8 °C 7.1 °C 1017.2 hPa Calm     83% 0 mm
03:44 9.8 °C 7.1 °C 1017.2 hPa Calm     83% 0 mm
03:49 9.7 °C 6.9 °C 1017.2 hPa Calm     83% 0 mm
03:54 9.4 °C 6.7 °C 1017.2 hPa Calm     83% 0 mm
03:59 9.3 °C 6.8 °C 1017.2 hPa Calm     84% 0 mm
04:04 9.2 °C 6.6 °C 1017.2 hPa Calm     84% 0 mm
04:09 9.2 °C 6.8 °C 1017.2 hPa Calm     85% 0 mm
04:14 9.2 °C 6.8 °C 1017.2 hPa Calm     85% 0 mm
04:19 9.2 °C 6.6 °C 1017.2 hPa Calm     84% 0 mm
04:24 9 °C 6.6 °C 1017.2 hPa Calm     85% 0 mm
04:29 9.1 °C 6.7 °C 1017.2 hPa Calm     85% 0 mm
04:34 8.9 °C 6.6 °C 1017.2 hPa Calm     85% 0 mm
04:39 9 °C 6.6 °C 1017.2 hPa Calm     85% 0 mm
04:44 8.9 °C 6.5 °C 1017.2 hPa Calm     85% 0 mm
04:49 8.8 °C 6.4 °C 1017.2 hPa Calm     85% 0 mm
04:54 8.8 °C 6.4 °C 1017.2 hPa Calm     85% 0 mm
04:59 8.7 °C 6.3 °C 1017.2 hPa Calm     85% 0 mm
05:04 8.7 °C 6.5 °C 1017.2 hPa Calm     86% 0 mm
05:09 8.7 °C 6.4 °C 1017.2 hPa Calm     86% 0 mm
05:14 8.6 °C 6.4 °C 1017.2 hPa Calm     86% 0 mm
05:19 8.7 °C 6.5 °C 1017.2 hPa Calm     86% 0 mm
05:24 8.7 °C 6.4 °C 1017.2 hPa Calm     86% 0 mm
05:29 8.6 °C 6.4 °C 1017.5 hPa Calm     86% 0 mm
05:34 8.6 °C 6.4 °C 1017.5 hPa Calm     86% 0 mm
05:39 8.5 °C 6.3 °C 1017.5 hPa Calm     86% 0 mm
05:44 8.7 °C 6.6 °C 1017.5 hPa Calm     87% 0 mm
05:49 8.9 °C 6.8 °C 1017.5 hPa Calm     87% 0 mm
05:54 9.1 °C 7 °C 1017.5 hPa Calm     87% 0 mm
05:59 9.1 °C 6.8 °C 1017.8 hPa Calm     86% 0 mm
06:04 9.1 °C 6.8 °C 1017.8 hPa Calm     86% 0 mm
06:09 9.2 °C 6.9 °C 1017.8 hPa Calm     86% 0 mm
06:14 9.4 °C 7.2 °C 1017.8 hPa Calm     86% 0 mm
06:19 9.6 °C 7.2 °C 1017.8 hPa Calm     85% 0 mm
06:24 9.7 °C 7.3 °C 1017.8 hPa Calm     85% 0 mm
06:29 10 °C 7.6 °C 1017.8 hPa Calm     85% 0 mm
06:34 10.3 °C 7.7 °C 1017.8 hPa Calm   4.8 km/h 84% 0 mm
06:39 10.6 °C 7.8 °C 1017.8 hPa NE 1.6 km/h 4.8 km/h 83% 0 mm
06:44 10.8 °C 7.9 °C 1017.8 hPa NE 3.2 km/h 3.2 km/h 82% 0 mm
06:49 11.1 °C 7.9 °C 1017.8 hPa NE 3.2 km/h 3.2 km/h 81% 0 mm
06:54 11.3 °C 8 °C 1017.8 hPa NE 3.2 km/h 3.2 km/h 80% 0 mm
06:59 11.6 °C 8.1 °C 1018.2 hPa NE 1.6 km/h 4.8 km/h 79% 0 mm
07:04 11.7 °C 8.2 °C 1017.8 hPa NE 1.6 km/h 4.8 km/h 79% 0 mm
07:09 11.8 °C 8.3 °C 1017.8 hPa NE 1.6 km/h 6.4 km/h 79% 0 mm
07:14 12 °C 8.3 °C 1017.8 hPa NE 1.6 km/h 6.4 km/h 78% 0 mm
07:19 12.3 °C 8.4 °C 1018.2 hPa Calm     77% 0 mm
07:24 12.6 °C 8.4 °C 1017.8 hPa Calm     76% 0 mm
07:29 12.9 °C 8.6 °C 1017.8 hPa Calm     75% 0 mm
07:34 13.2 °C 8.9 °C 1017.8 hPa Calm     75% 0 mm
07:39 13.5 °C 8.9 °C 1017.8 hPa Calm     74% 0 mm
07:44 13.8 °C 9 °C 1018.2 hPa Calm     73% 0 mm
07:49 14.1 °C 9.1 °C 1017.8 hPa Calm     72% 0 mm
07:54 14.4 °C 9.4 °C 1017.8 hPa NE 1.6 km/h 1.6 km/h 72% 0 mm
07:59 14.6 °C 9.2 °C 1017.8 hPa NE 1.6 km/h 4.8 km/h 70% 0 mm
08:04 14.7 °C 9.3 °C 1017.8 hPa NE 1.6 km/h 4.8 km/h 70% 0 mm
08:09 15.2 °C 9.7 °C 1017.8 hPa Calm   3.2 km/h 70% 0 mm
08:14 15.6 °C 9.9 °C 1017.8 hPa Calm   4.8 km/h 69% 0 mm
08:19 15.9 °C 10 °C 1017.8 hPa Calm   4.8 km/h 68% 0 mm
08:24 16.2 °C 10.3 °C 1017.8 hPa Calm     68% 0 mm
08:29 15.9 °C 9.8 °C 1017.8 hPa Calm     67% 0 mm
08:34 16.6 °C 10.4 °C 1017.8 hPa Calm     67% 0 mm
08:39 17.2 °C 10.1 °C 1017.8 hPa Calm     63% 0 mm
08:44 17.3 °C 10.4 °C 1017.8 hPa Calm     64% 0 mm
08:49 17.6 °C 10.2 °C 1017.8 hPa Calm     62% 0 mm
08:54 17.7 °C 10.3 °C 1017.8 hPa Calm     62% 0 mm
08:59 18.1 °C 10.9 °C 1017.8 hPa Calm     63% 0 mm
09:04 18.7 °C 10.5 °C 1017.8 hPa Calm     59% 0 mm
09:09 19.3 °C 11.1 °C 1017.8 hPa Calm     59% 0 mm
09:14 19 °C 11.3 °C 1017.8 hPa Calm     61% 0 mm
09:19 19 °C 11.1 °C 1017.8 hPa SSE 1.6 km/h 4.8 km/h 60% 0 mm
09:24 19.2 °C 9.9 °C 1017.8 hPa Calm     55% 0 mm
09:29 19.2 °C 9.9 °C 1017.5 hPa Calm   6.4 km/h 55% 0 mm
09:34 19.9 °C 10.8 °C 1017.5 hPa SE 1.6 km/h 3.2 km/h 56% 0 mm
09:39 20.2 °C 10.3 °C 1017.5 hPa ENE 1.6 km/h 6.4 km/h 53% 0 mm
09:44 20.1 °C 9.6 °C 1017.5 hPa Calm   3.2 km/h 51% 0 mm
09:49 20.7 °C 10.2 °C 1017.5 hPa NNW 1.6 km/h 3.2 km/h 51% 0 mm
09:54 20.9 °C 10.1 °C 1017.5 hPa NNW 1.6 km/h 3.2 km/h 50% 0 mm
09:59 21.1 °C 10.2 °C 1017.5 hPa NE 1.6 km/h 6.4 km/h 50% 0 mm
10:04 21.3 °C 11.6 °C 1017.2 hPa NNE 3.2 km/h 6.4 km/h 54% 0 mm
10:14 21.3 °C 9.8 °C 1017.2 hPa NE 1.6 km/h 6.4 km/h 48% 0 mm
10:19 21.6 °C 9.4 °C 1017.2 hPa ENE 1.6 km/h 8 km/h 46% 0 mm
10:24 21.4 °C 8.6 °C 1017.2 hPa East 3.2 km/h 8 km/h 44% 0 mm
10:29 21.7 °C 11.1 °C 1016.8 hPa ESE 1.6 km/h 6.4 km/h 51% 0 mm
10:34 21.7 °C 8.9 °C 1016.8 hPa SE 1.6 km/h 6.4 km/h 44% 0 mm
10:39 22.3 °C 9.1 °C 1016.8 hPa ESE 1.6 km/h 4.8 km/h 43% 0 mm
10:44 22.4 °C 9.6 °C 1016.8 hPa ESE 3.2 km/h 4.8 km/h 44% 0 mm
10:49 22.6 °C 10.3 °C 1016.5 hPa Calm   3.2 km/h 46% 0 mm
10:54 22.4 °C 9.9 °C 1016.5 hPa NNE 1.6 km/h 9.7 km/h 45% 0 mm
10:59 22.2 °C 9.7 °C 1016.5 hPa NE 3.2 km/h 11.3 km/h 45% 0 mm
11:04 22.3 °C 10.1 °C 1016.5 hPa ESE 1.6 km/h 6.4 km/h 46% 0 mm
11:09 22.6 °C 11.3 °C 1016.5 hPa ESE 3.2 km/h 11.3 km/h 49% 0 mm
11:14 22.7 °C 11.2 °C 1016.5 hPa NE 6.4 km/h 9.7 km/h 48% 0 mm
11:19 22.6 °C 10.7 °C 1016.1 hPa NW 3.2 km/h 9.7 km/h 47% 0 mm
11:24 22.7 °C 10.8 °C 1016.1 hPa North 4.8 km/h 8 km/h 47% 0 mm
11:29 22.7 °C 11.4 °C 1016.1 hPa NNE 3.2 km/h 8 km/h 49% 0 mm
11:34 23.1 °C 11.1 °C 1016.1 hPa ESE 3.2 km/h 12.9 km/h 47% 0 mm
11:39 22.9 °C 10.7 °C 1016.1 hPa ENE 6.4 km/h 12.9 km/h 46% 0 mm
11:44 22.8 °C 10.6 °C 1015.8 hPa ENE 4.8 km/h 12.9 km/h 46% 0 mm
11:49 22.4 °C 9.9 °C 1015.8 hPa ENE 3.2 km/h 12.9 km/h 45% 0 mm
11:54 23.2 °C 9.9 °C 1015.8 hPa NW 3.2 km/h 6.4 km/h 43% 0 mm
11:59 23.3 °C 10.7 °C 1015.5 hPa East 3.2 km/h 4.8 km/h 45% 0 mm
12:04 23.6 °C 10.9 °C 1015.5 hPa NE 4.8 km/h 12.9 km/h 45% 0 mm
12:09 23.4 °C 11.5 °C 1015.5 hPa ENE 1.6 km/h 4.8 km/h 47% 0 mm
12:14 22.9 °C 9.3 °C 1015.5 hPa North 3.2 km/h 8 km/h 42% 0 mm
12:19 22.9 °C 10.4 °C 1015.5 hPa NW 1.6 km/h 8 km/h 45% 0 mm
12:24 23.3 °C 11.4 °C 1015.5 hPa West 1.6 km/h 4.8 km/h 47% 0 mm
12:29 23.8 °C 10.8 °C 1015.5 hPa West 1.6 km/h 8 km/h 44% 0 mm
12:34 23.7 °C 10.4 °C 1015.5 hPa East 3.2 km/h 12.9 km/h 43% 0 mm
12:39 23.6 °C 11.3 °C 1015.1 hPa East 4.8 km/h 12.9 km/h 46% 0 mm
12:44 23.1 °C 9.4 °C 1015.1 hPa SSW 3.2 km/h 9.7 km/h 42% 0 mm
12:49 23.6 °C 11.9 °C 1015.1 hPa SSW 1.6 km/h 9.7 km/h 48% 0 mm
12:54 23.9 °C 10.6 °C 1015.1 hPa SSW 1.6 km/h 6.4 km/h 43% 0 mm
12:59 23.6 °C 10.7 °C 1015.1 hPa SW 1.6 km/h 9.7 km/h 44% 0 mm
13:04 23.1 °C 10.2 °C 1014.8 hPa NE 1.6 km/h 8 km/h 44% 0 mm
13:09 23.2 °C 10.3 °C 1014.8 hPa East 4.8 km/h 14.5 km/h 44% 0 mm
13:14 24.2 °C 10.4 °C 1014.8 hPa SE 1.6 km/h 16.1 km/h 42% 0 mm
13:19 23.8 °C 9.4 °C 1014.8 hPa NE 6.4 km/h 19.3 km/h 40% 0 mm
13:24 23.8 °C 11.5 °C 1014.4 hPa ENE 6.4 km/h 11.3 km/h 46% 0 mm
13:29 23.4 °C 10.2 °C 1014.4 hPa ENE 6.4 km/h 16.1 km/h 43% 0 mm
13:34 22.9 °C 10.3 °C 1014.4 hPa East 4.8 km/h 16.1 km/h 45% 0 mm
13:39 23.7 °C 10.7 °C 1014.4 hPa East 3.2 km/h 11.3 km/h 44% 0 mm
13:44 23.2 °C 10.6 °C 1014.1 hPa NNE 3.2 km/h 8 km/h 45% 0 mm
13:49 23.4 °C 11.8 °C 1014.1 hPa NNE 8 km/h 9.7 km/h 48% 0 mm
13:54 23.2 °C 10.6 °C 1014.1 hPa NNE 4.8 km/h 16.1 km/h 45% 0 mm
13:59 22.9 °C 10.7 °C 1014.1 hPa NE 6.4 km/h 16.1 km/h 46% 0 mm
14:04 22.9 °C 10.7 °C 1013.8 hPa NE 3.2 km/h 14.5 km/h 46% 0 mm
14:09 22.8 °C 10.6 °C 1013.8 hPa ENE 8 km/h 11.3 km/h 46% 0 mm
14:14 22.6 °C 11.1 °C 1013.8 hPa North 4.8 km/h 12.9 km/h 48% 0 mm
14:19 22.7 °C 9.8 °C 1013.8 hPa NE 3.2 km/h 11.3 km/h 44% 0 mm
14:24 24.2 °C 11.8 °C 1013.4 hPa North 3.2 km/h 6.4 km/h 46% 0 mm
14:29 24.4 °C 12 °C 1013.4 hPa North 3.2 km/h 8 km/h 46% 0 mm
14:34 23.6 °C 10.2 °C 1013.4 hPa NNE 4.8 km/h 11.3 km/h 43% 0 mm
14:39 22.9 °C 10.7 °C 1013.4 hPa NE 4.8 km/h 12.9 km/h 46% 0 mm
14:44 22.9 °C 10.3 °C 1013.4 hPa NE 4.8 km/h 12.9 km/h 45% 0 mm
14:49 23.6 °C 10.2 °C 1013.4 hPa ENE 4.8 km/h 12.9 km/h 43% 0 mm
14:54 24.2 °C 10.4 °C 1013.1 hPa Calm   12.9 km/h 42% 0 mm
14:59 24.5 °C 10.7 °C 1013.1 hPa NE 1.6 km/h 4.8 km/h 42% 0 mm
15:04 24.4 °C 11.7 °C 1013.1 hPa NW 3.2 km/h 12.9 km/h 45% 0 mm
15:09 24.3 °C 10.6 °C 1013.1 hPa NW 1.6 km/h 4.8 km/h 42% 0 mm
15:14 23.9 °C 11.6 °C 1013.1 hPa NNE 3.2 km/h 14.5 km/h 46% 0 mm
15:19 24.4 °C 11.4 °C 1012.8 hPa ENE 16.1 km/h 16.1 km/h 44% 0 mm
15:24 24.6 °C 11.2 °C 1012.8 hPa NE 6.4 km/h 16.1 km/h 43% 0 mm
15:29 24.6 °C 10.1 °C 1012.8 hPa NE 6.4 km/h 16.1 km/h 40% 0 mm
15:34 24.9 °C 11.4 °C 1012.8 hPa NE 4.8 km/h 14.5 km/h 43% 0 mm
15:39 24.8 °C 11.1 °C 1012.4 hPa NE 4.8 km/h 12.9 km/h 42% 0 mm
15:44 25 °C 10.4 °C 1012.4 hPa ENE 4.8 km/h 12.9 km/h 40% 0 mm
15:49 24.2 °C 11.8 °C 1012.4 hPa NE 6.4 km/h 17.7 km/h 46% 0 mm
15:54 23.1 °C 11.4 °C 1012.4 hPa NNE 6.4 km/h 17.7 km/h 48% 0 mm
15:59 23.6 °C 12.3 °C 1012.1 hPa Calm   9.7 km/h 49% 0 mm
16:04 24.5 °C 12.8 °C 1012.1 hPa NNW 3.2 km/h 12.9 km/h 48% 0 mm
16:09 24.7 °C 12.9 °C 1012.1 hPa WNW 12.9 km/h 14.5 km/h 48% 0 mm
16:14 24.4 °C 12.3 °C 1012.1 hPa NE 6.4 km/h 19.3 km/h 47% 0 mm
16:19 24.2 °C 12.8 °C 1011.7 hPa NW 3.2 km/h 16.1 km/h 49% 0 mm
16:24 23.8 °C 11.4 °C 1011.7 hPa NNW 4.8 km/h 14.5 km/h 46% 0 mm
16:29 23.1 °C 11.1 °C 1011.7 hPa North 6.4 km/h 17.7 km/h 47% 0 mm
16:34 23.1 °C 11.8 °C 1011.7 hPa NNW 8 km/h 17.7 km/h 49% 0 mm
16:39 23.8 °C 12.4 °C 1011.4 hPa North 6.4 km/h 16.1 km/h 49% 0 mm
16:44 23.8 °C 12.4 °C 1011.4 hPa NNW 6.4 km/h 16.1 km/h 49% 0 mm
16:49 24.2 °C 12.2 °C 1011.4 hPa NNW 6.4 km/h 16.1 km/h 47% 0 mm
16:54 24 °C 12.3 °C 1011.4 hPa NE 4.8 km/h 14.5 km/h 48% 0 mm
16:59 23.4 °C 12.1 °C 1011.4 hPa WNW 6.4 km/h 11.3 km/h 49% 0 mm
17:04 23.3 °C 12 °C 1011.4 hPa North 6.4 km/h 12.9 km/h 49% 0 mm
17:09 23.3 °C 11.7 °C 1011.4 hPa NNE 3.2 km/h 11.3 km/h 48% 0 mm
17:14 23.3 °C 12 °C 1011.4 hPa Calm   9.7 km/h 49% 0 mm
17:19 23.2 °C 11.3 °C 1011.1 hPa NNW 3.2 km/h 12.9 km/h 47% 0 mm
17:24 23.7 °C 12.1 °C 1011.1 hPa NNE 4.8 km/h 11.3 km/h 48% 0 mm
17:29 23.9 °C 11.9 °C 1011.1 hPa NW 3.2 km/h 9.7 km/h 47% 0 mm
17:34 24.1 °C 12.4 °C 1011.1 hPa North 4.8 km/h 14.5 km/h 48% 0 mm
17:39 24 °C 12 °C 1011.1 hPa North 4.8 km/h 14.5 km/h 47% 0 mm
17:44 23.9 °C 12.2 °C 1011.1 hPa North 4.8 km/h 14.5 km/h 48% 0 mm
17:49 23.8 °C 11.8 °C 1010.7 hPa North 6.4 km/h 14.5 km/h 47% 0 mm
17:54 23.3 °C 11.3 °C 1011.1 hPa NNW 3.2 km/h 11.3 km/h 47% 0 mm
17:59 23 °C 11.4 °C 1010.7 hPa North 4.8 km/h 12.9 km/h 48% 0 mm
18:04 23.3 °C 11.7 °C 1010.7 hPa NNW 8 km/h 16.1 km/h 48% 0 mm
18:09 23.4 °C 10.8 °C 1010.7 hPa North 6.4 km/h 16.1 km/h 45% 0 mm
18:14 23.2 °C 11.8 °C 1010.7 hPa North 4.8 km/h 14.5 km/h 49% 0 mm
18:19 23.2 °C 10.9 °C 1010.7 hPa North 6.4 km/h 12.9 km/h 46% 0 mm
18:24 23.1 °C 11.4 °C 1010.7 hPa North 11.3 km/h 14.5 km/h 48% 0 mm
18:29 22.8 °C 11.6 °C 1010.4 hPa NE 1.6 km/h 14.5 km/h 49% 0 mm
18:34 22.8 °C 10.9 °C 1010.7 hPa NNW 3.2 km/h 16.1 km/h 47% 0 mm
18:39 22.7 °C 10.8 °C 1010.4 hPa North 6.4 km/h 16.1 km/h 47% 0 mm
18:44 22.5 °C 11.2 °C 1010.4 hPa NNW 6.4 km/h 16.1 km/h 49% 0 mm
18:49 22.3 °C 10.2 °C 1010.4 hPa North 8 km/h 12.9 km/h 46% 0 mm
18:54 22.2 °C 10.6 °C 1010.4 hPa North 3.2 km/h 17.7 km/h 48% 0 mm
18:59 22.2 °C 10.7 °C 1010.4 hPa NNW 9.7 km/h 12.9 km/h 48% 0 mm
19:04 22.1 °C 10.6 °C 1010.4 hPa NW 3.2 km/h 17.7 km/h 48% 0 mm
19:09 22 °C 10.8 °C 1010.4 hPa North 6.4 km/h 17.7 km/h 49% 0 mm
19:14 21.9 °C 10.7 °C 1010.4 hPa North 6.4 km/h 17.7 km/h 49% 0 mm
19:19 21.8 °C 10.6 °C 1010.4 hPa North 6.4 km/h 17.7 km/h 49% 0 mm
19:24 21.7 °C 10.8 °C 1010.4 hPa North 4.8 km/h 9.7 km/h 50% 0 mm
19:29 21.7 °C 10.5 °C 1010.4 hPa North 4.8 km/h 11.3 km/h 49% 0 mm
19:34 21.4 °C 10.6 °C 1010.4 hPa NNW 3.2 km/h 12.9 km/h 50% 0 mm
19:39 21.3 °C 10.5 °C 1010.7 hPa NNW 4.8 km/h 12.9 km/h 50% 0 mm
19:44 21.3 °C 10.1 °C 1010.4 hPa North 6.4 km/h 14.5 km/h 49% 0 mm
19:54 20.8 °C 9.7 °C 1010.4 hPa NNW 3.2 km/h 11.3 km/h 49% 0 mm
19:59 20.7 °C 9.9 °C 1010.4 hPa North 3.2 km/h 11.3 km/h 50% 0 mm
20:04 20.6 °C 9.8 °C 1010.4 hPa North 4.8 km/h 12.9 km/h 50% 0 mm
20:09 20.6 °C 9.8 °C 1010.4 hPa NW 3.2 km/h 8 km/h 50% 0 mm
20:14 20.4 °C 9.6 °C 1010.4 hPa NNW 3.2 km/h 8 km/h 50% 0 mm
20:19 20.2 °C 10 °C 1010.4 hPa NNW 3.2 km/h 9.7 km/h 52% 0 mm
20:24 20 °C 9.8 °C 1010.4 hPa NNW 3.2 km/h 9.7 km/h 52% 0 mm
20:29 19.8 °C 9.7 °C 1010.4 hPa NNW 3.2 km/h 8 km/h 52% 0 mm
20:34 19.8 °C 9.6 °C 1010.4 hPa NNW 6.4 km/h 8 km/h 52% 0 mm
20:39 19.5 °C 9.7 °C 1010.4 hPa NNW 4.8 km/h 6.4 km/h 53% 0 mm
20:44 19.4 °C 9.6 °C 1010 hPa NNW 3.2 km/h 9.7 km/h 53% 0 mm
20:49 19.4 °C 9.6 °C 1010 hPa NW 1.6 km/h 8 km/h 53% 0 mm
20:54 19.2 °C 9.3 °C 1010 hPa NW 1.6 km/h 3.2 km/h 53% 0 mm
20:59 19 °C 9.2 °C 1010.4 hPa Calm   3.2 km/h 53% 0 mm
21:04 18.8 °C 9.3 °C 1010.4 hPa Calm     54% 0 mm
21:09 18.7 °C 9.2 °C 1010.4 hPa Calm     54% 0 mm
21:14 18.7 °C 9.4 °C 1010.4 hPa Calm     55% 0 mm
21:19 18.4 °C 9.2 °C 1010.4 hPa Calm     55% 0 mm
21:24 18.3 °C 9.3 °C 1010.4 hPa Calm     56% 0 mm
21:29 18.1 °C 9.2 °C 1010.4 hPa Calm     56% 0 mm
21:34 18 °C 9.3 °C 1010.4 hPa Calm     57% 0 mm
21:39 17.8 °C 9.4 °C 1010.4 hPa Calm     58% 0 mm
21:44 17.7 °C 9.3 °C 1010.4 hPa Calm     58% 0 mm
21:49 17.6 °C 9.2 °C 1010.4 hPa Calm     58% 0 mm
21:54 17.6 °C 9.2 °C 1010.4 hPa Calm     58% 0 mm
21:59 17.4 °C 9.3 °C 1010.4 hPa Calm     59% 0 mm
22:04 17.3 °C 9.4 °C 1010.4 hPa Calm     60% 0 mm
22:09 17 °C 9.7 °C 1010.4 hPa Calm     62% 0 mm
22:14 16.8 °C 10 °C 1010.4 hPa Calm     64% 0 mm
22:19 16.7 °C 9.8 °C 1010.4 hPa Calm     64% 0 mm
22:24 16.4 °C 9.8 °C 1010.7 hPa Calm   3.2 km/h 65% 0 mm
22:29 16.4 °C 10.3 °C 1010.4 hPa SW 3.2 km/h 3.2 km/h 67% 0 mm
22:34 16.6 °C 11.3 °C 1010.7 hPa South 3.2 km/h 6.4 km/h 71% 0 mm
22:39 16.6 °C 11.9 °C 1010.7 hPa South 1.6 km/h 6.4 km/h 74% 0 mm
22:44 16.3 °C 11.9 °C 1010.4 hPa SSW 1.6 km/h 6.4 km/h 75% 0 mm
22:49 16.1 °C 12.1 °C 1010.4 hPa SSW 1.6 km/h 6.4 km/h 77% 0 mm
22:54 16 °C 11.9 °C 1010.4 hPa Calm   3.2 km/h 77% 0 mm
22:59 15.9 °C 12.1 °C 1010.4 hPa Calm     78% 0 mm
23:04 15.8 °C 12.2 °C 1010.4 hPa Calm     79% 0 mm
23:09 15.7 °C 12.3 °C 1010.4 hPa Calm     80% 0 mm
23:14 15.6 °C 12.2 °C 1010.4 hPa Calm     80% 0 mm
23:19 15.4 °C 12.2 °C 1010 hPa Calm     81% 0 mm
23:24 15.3 °C 11.8 °C 1010 hPa Calm     80% 0 mm
23:29 15.2 °C 11.7 °C 1010 hPa Calm     80% 0 mm
23:34 15.1 °C 11.8 °C 1010 hPa Calm     81% 0 mm
23:39 15.2 °C 11.8 °C 1010 hPa Calm     80% 0 mm
23:44 15.2 °C 11.6 °C 1010 hPa Calm     79% 0 mm
23:49 15.1 °C 11.5 °C 1010 hPa Calm     79% 0 mm
23:54 15 °C 11.4 °C 1009.7 hPa Calm     79% 0 mm
23:59 14.9 °C 11.5 °C 1009.7 hPa Calm     80% 0 mm
Buffalo, New York, USA
Compliments of Weather Underground - 2.5 mb